createdAt,value
2023-01-30T00:01:58.195Z,11.05
2023-01-30T00:04:25.986Z,10.18
2023-01-30T00:06:53.432Z,10.15
2023-01-30T00:09:21.287Z,11.07
2023-01-30T00:11:48.706Z,11.75
2023-01-30T00:14:16.553Z,11.32
2023-01-30T00:16:44.120Z,10.23
2023-01-30T00:19:11.935Z,10.05
2023-01-30T00:21:39.547Z,9.32
2023-01-30T00:24:07.938Z,12.55
2023-01-30T00:26:35.448Z,11.80
2023-01-30T00:29:03.354Z,11.15
2023-01-30T00:31:31.510Z,11.32
2023-01-30T00:33:59.360Z,11.25
2023-01-30T00:36:26.939Z,11.00
2023-01-30T00:38:58.625Z,11.00
2023-01-30T00:41:46.302Z,11.60
2023-01-30T00:44:32.582Z,11.40
2023-01-30T00:47:06.264Z,11.52
2023-01-30T00:49:34.368Z,13.48
2023-01-30T00:52:02.427Z,12.50
2023-01-30T00:54:31.093Z,11.20
2023-01-30T00:56:59.550Z,11.23
2023-01-30T00:59:28.280Z,11.50
2023-01-30T01:01:55.967Z,9.80
2023-01-30T01:04:23.830Z,9.98
2023-01-30T01:06:51.290Z,10.98
2023-01-30T01:09:19.239Z,10.38
2023-01-30T01:11:46.781Z,9.48
2023-01-30T01:14:15.040Z,8.57
2023-01-30T01:16:42.700Z,9.25
2023-01-30T01:19:10.503Z,8.07
2023-01-30T01:21:38.023Z,8.77
2023-01-30T01:24:06.568Z,8.07
2023-01-30T01:26:34.425Z,8.88
2023-01-30T01:29:03.621Z,8.13
2023-01-30T01:31:31.770Z,7.68
2023-01-30T01:33:59.614Z,8.85
2023-01-30T01:36:52.156Z,8.55
2023-01-30T01:39:14.967Z,10.35
2023-01-30T01:41:42.929Z,7.80
2023-01-30T01:44:17.299Z,9.20
2023-01-30T01:46:57.961Z,9.10
2023-01-30T01:49:34.717Z,7.65
2023-01-30T01:52:15.876Z,9.48
2023-01-30T01:54:54.830Z,8.90
2023-01-30T01:57:54.220Z,8.88
2023-01-30T02:00:24.364Z,9.00
2023-01-30T02:03:01.844Z,7.85
2023-01-30T02:05:40.885Z,10.07
2023-01-30T02:08:19.193Z,8.85
2023-01-30T02:11:11.893Z,8.43
2023-01-30T02:13:39.599Z,8.93
2023-01-30T02:16:09.228Z,8.50
2023-01-30T02:18:42.066Z,9.15
2023-01-30T02:21:52.156Z,8.70
2023-01-30T02:24:51.609Z,9.07
2023-01-30T02:27:35.134Z,9.70
2023-01-30T02:30:22.441Z,8.80
2023-01-30T02:33:32.634Z,10.18
2023-01-30T02:36:24.952Z,9.23
2023-01-30T02:39:08.897Z,9.90
2023-01-30T02:41:57.887Z,8.85
2023-01-30T02:47:10.114Z,9.40
2023-01-30T02:50:14.284Z,8.73
2023-01-30T02:52:42.613Z,9.27
2023-01-30T02:55:26.826Z,8.60
2023-01-30T02:57:56.084Z,10.10
2023-01-30T03:03:24.418Z,9.52
2023-01-30T03:06:10.072Z,9.95
2023-01-30T03:09:07.819Z,10.65
2023-01-30T03:12:08.081Z,10.15
2023-01-30T03:15:05.301Z,10.38
2023-01-30T03:17:35.318Z,11.35
2023-01-30T03:20:04.358Z,11.52
2023-01-30T03:22:33.481Z,11.20
2023-01-30T03:25:01.197Z,11.75
2023-01-30T03:27:29.455Z,11.55
2023-01-30T03:29:57.957Z,10.52
2023-01-30T03:32:26.226Z,13.52
2023-01-30T03:34:53.703Z,12.98
2023-01-30T03:37:21.690Z,10.07
2023-01-30T03:39:49.653Z,12.00
2023-01-30T03:42:17.625Z,12.40
2023-01-30T03:44:45.080Z,12.63
2023-01-30T03:47:12.922Z,13.55
2023-01-30T03:49:40.789Z,11.88
2023-01-30T03:52:08.698Z,12.35
2023-01-30T03:54:36.258Z,11.93
2023-01-30T03:57:04.632Z,13.25
2023-01-30T03:59:32.360Z,12.52
2023-01-30T04:02:06.611Z,11.70
2023-01-30T04:04:34.859Z,12.45
2023-01-30T04:07:04.587Z,11.93
2023-01-30T04:09:33.652Z,12.65
2023-01-30T04:12:02.926Z,11.63
2023-01-30T04:14:35.877Z,13.43
2023-01-30T04:17:26.540Z,12.23
2023-01-30T04:20:29.085Z,11.90
2023-01-30T04:22:58.103Z,11.73
2023-01-30T04:25:27.547Z,12.25
2023-01-30T04:27:55.685Z,11.48
2023-01-30T04:30:27.663Z,12.05
2023-01-30T04:33:07.845Z,10.57
2023-01-30T04:35:35.526Z,11.07
2023-01-30T04:38:03.446Z,10.65
2023-01-30T04:40:31.076Z,11.23
2023-01-30T04:42:58.941Z,10.60
2023-01-30T04:46:01.591Z,12.10
2023-01-30T04:48:30.849Z,11.45
2023-01-30T04:51:00.879Z,11.93
2023-01-30T04:53:29.341Z,11.82
2023-01-30T04:55:57.828Z,10.50
2023-01-30T04:58:25.769Z,12.63
2023-01-30T05:00:53.763Z,10.98
2023-01-30T05:03:21.654Z,12.20
2023-01-30T05:05:49.271Z,11.90
2023-01-30T05:08:17.248Z,11.45
2023-01-30T05:10:44.799Z,12.15
2023-01-30T05:13:13.034Z,12.13
2023-01-30T05:15:40.910Z,10.35
2023-01-30T05:18:08.812Z,9.77
2023-01-30T05:20:36.332Z,10.45
2023-01-30T05:23:04.173Z,11.68
2023-01-30T05:25:31.930Z,10.52
2023-01-30T05:28:00.189Z,9.52
2023-01-30T05:30:27.769Z,8.93
2023-01-30T05:32:58.864Z,8.93
2023-01-30T05:35:26.311Z,10.00
2023-01-30T05:37:54.106Z,10.32
2023-01-30T05:40:21.531Z,7.85
2023-01-30T05:42:49.437Z,10.57
2023-01-30T05:45:17.341Z,8.63
2023-01-30T05:47:45.344Z,8.45
2023-01-30T05:50:12.894Z,8.82
2023-01-30T05:52:40.997Z,10.73
2023-01-30T05:55:09.223Z,10.43
2023-01-30T05:57:36.993Z,11.20
2023-01-30T06:00:06.493Z,10.30
2023-01-30T06:02:41.497Z,9.45
2023-01-30T06:05:09.529Z,8.77
2023-01-30T06:07:37.338Z,8.25
2023-01-30T06:10:05.280Z,9.88
2023-01-30T06:12:33.455Z,9.85
2023-01-30T06:15:00.982Z,9.27
2023-01-30T06:17:29.987Z,12.38
2023-01-30T06:19:57.594Z,11.65
2023-01-30T06:22:25.304Z,10.38
2023-01-30T06:24:52.848Z,12.45
2023-01-30T06:27:20.809Z,10.00
2023-01-30T06:29:48.275Z,10.15
2023-01-30T06:32:16.069Z,8.35
2023-01-30T06:34:43.590Z,10.20
2023-01-30T06:37:11.403Z,9.73
2023-01-30T06:39:38.987Z,8.13
2023-01-30T06:42:07.282Z,8.85
2023-01-30T06:44:34.753Z,8.68
2023-01-30T06:47:02.650Z,9.40
2023-01-30T06:49:30.339Z,7.93
2023-01-30T06:51:58.486Z,7.53
2023-01-30T06:54:26.058Z,7.03
2023-01-30T06:56:54.308Z,7.30
2023-01-30T06:59:21.857Z,8.70
2023-01-30T07:01:49.961Z,6.93
2023-01-30T07:04:17.623Z,6.05
2023-01-30T07:06:46.916Z,7.35
2023-01-30T07:09:14.615Z,7.05
2023-01-30T07:11:42.561Z,7.25
2023-01-30T07:14:10.472Z,7.80
2023-01-30T07:16:38.366Z,7.72
2023-01-30T07:19:05.844Z,9.30
2023-01-30T07:21:33.656Z,8.07
2023-01-30T07:24:01.202Z,7.50
2023-01-30T07:26:31.306Z,6.75
2023-01-30T07:28:59.183Z,7.20
2023-01-30T07:31:27.216Z,6.18
2023-01-30T07:33:54.802Z,7.13
2023-01-30T07:36:22.621Z,6.40
2023-01-30T07:38:50.026Z,8.23
2023-01-30T07:41:17.753Z,8.27
2023-01-30T07:43:45.274Z,8.98
2023-01-30T07:46:13.080Z,7.00
2023-01-30T07:48:40.542Z,6.50
2023-01-30T07:51:08.411Z,6.45
2023-01-30T07:53:35.837Z,5.40
2023-01-30T07:56:14.210Z,5.63
2023-01-30T07:58:41.865Z,5.45
2023-01-30T08:01:09.851Z,7.70
2023-01-30T08:03:37.393Z,7.32
2023-01-30T08:06:05.483Z,6.75
2023-01-30T08:08:33.013Z,6.20
2023-01-30T08:11:00.975Z,6.05
2023-01-30T08:13:28.363Z,4.85
2023-01-30T08:16:00.285Z,7.43
2023-01-30T08:18:33.521Z,5.13
2023-01-30T08:21:04.769Z,4.53
2023-01-30T08:23:34.033Z,4.47
2023-01-30T08:28:31.540Z,4.88
2023-01-30T08:30:59.820Z,4.80
2023-01-30T08:33:27.797Z,5.95
2023-01-30T08:35:57.236Z,5.13
2023-01-30T08:38:24.805Z,5.53
2023-01-30T08:40:52.813Z,5.45
2023-01-30T08:43:20.665Z,5.78
2023-01-30T08:45:48.704Z,5.80
2023-01-30T08:48:16.257Z,5.55
2023-01-30T08:50:44.201Z,5.00
2023-01-30T08:53:11.907Z,5.07
2023-01-30T08:55:39.976Z,5.20
2023-01-30T08:58:07.642Z,6.13
2023-01-30T09:00:35.531Z,6.82
2023-01-30T09:03:03.163Z,6.93
2023-01-30T09:05:31.052Z,7.15
2023-01-30T09:07:58.785Z,6.45
2023-01-30T09:10:26.574Z,6.35
2023-01-30T09:12:54.001Z,7.10
2023-01-30T09:15:21.914Z,5.90
2023-01-30T09:17:49.562Z,5.72
2023-01-30T09:20:19.095Z,6.38
2023-01-30T09:25:15.459Z,5.18
2023-01-30T09:27:44.604Z,6.72
2023-01-30T09:32:40.273Z,8.32
2023-01-30T09:35:08.677Z,5.75
2023-01-30T09:37:36.255Z,6.30
2023-01-30T09:40:05.316Z,7.70
2023-01-30T09:43:00.226Z,6.00
2023-01-30T09:45:38.316Z,6.13
2023-01-30T09:48:32.792Z,4.90
2023-01-30T09:51:26.280Z,5.20
2023-01-30T09:54:16.909Z,5.25
2023-01-30T09:56:44.947Z,5.95
2023-01-30T09:59:34.698Z,6.22
2023-01-30T10:02:44.959Z,5.85
2023-01-30T10:05:13.236Z,6.00
2023-01-30T10:08:06.217Z,5.93
2023-01-30T10:11:09.621Z,5.80
2023-01-30T10:14:04.817Z,7.13
2023-01-30T10:16:44.360Z,7.07
2023-01-30T10:19:35.177Z,6.97
2023-01-30T10:22:28.447Z,6.75
2023-01-30T10:25:32.837Z,6.97
2023-01-30T10:28:21.090Z,7.47
2023-01-30T10:30:56.424Z,4.47
2023-01-30T10:33:40.815Z,7.13
2023-01-30T10:36:18.654Z,7.00
2023-01-30T10:38:54.924Z,6.72
2023-01-30T10:41:38.852Z,8.07
2023-01-30T10:44:13.217Z,8.55
2023-01-30T10:47:47.699Z,8.70
2023-01-30T10:50:26.947Z,6.97
2023-01-30T10:53:17.185Z,8.27
2023-01-30T10:55:48.790Z,6.72
2023-01-30T10:58:41.430Z,7.95
2023-01-30T11:01:47.830Z,6.93
2023-01-30T11:04:34.293Z,7.38
2023-01-30T11:07:03.125Z,7.72
2023-01-30T11:09:47.574Z,8.50
2023-01-30T11:12:15.866Z,9.27
2023-01-30T11:14:59.802Z,10.30
2023-01-30T11:17:45.864Z,8.98
2023-01-30T11:20:22.648Z,8.65
2023-01-30T11:23:08.307Z,8.57
2023-01-30T11:26:02.321Z,7.07
2023-01-30T11:28:44.199Z,8.85
2023-01-30T11:31:38.949Z,8.85
2023-01-30T11:34:17.955Z,9.35
2023-01-30T11:36:49.579Z,8.02
2023-01-30T11:39:20.499Z,9.25
2023-01-30T11:41:54.374Z,8.57
2023-01-30T11:44:40.872Z,8.02
2023-01-30T11:47:27.344Z,8.60
2023-01-30T11:50:12.051Z,7.63
2023-01-30T11:52:48.177Z,9.30
2023-01-30T11:55:19.757Z,8.88
2023-01-30T11:57:54.485Z,8.63
2023-01-30T12:00:38.411Z,8.52
2023-01-30T12:03:18.383Z,8.27
2023-01-30T12:05:47.497Z,8.70
2023-01-30T12:08:31.106Z,8.90
2023-01-30T12:11:03.393Z,9.00
2023-01-30T12:13:45.588Z,9.60
2023-01-30T12:16:39.667Z,10.25
2023-01-30T12:20:00.079Z,21.70
2023-01-30T12:22:59.023Z,25.83
2023-01-30T12:25:35.762Z,16.77
2023-01-30T12:28:33.844Z,17.02
2023-01-30T12:31:28.670Z,9.85
2023-01-30T12:33:56.748Z,9.82
2023-01-30T12:37:05.428Z,9.70
2023-01-30T12:39:50.487Z,11.23
2023-01-30T12:42:18.977Z,9.73
2023-01-30T12:45:19.599Z,9.15
2023-01-30T12:48:21.674Z,9.15
2023-01-30T12:51:33.464Z,9.40
2023-01-30T12:54:21.459Z,12.57
2023-01-30T12:57:15.141Z,10.82
2023-01-30T13:00:11.707Z,10.85
2023-01-30T13:03:15.333Z,9.00
2023-01-30T13:06:12.049Z,8.65
2023-01-30T13:09:05.396Z,9.75
2023-01-30T13:12:20.191Z,9.85
2023-01-30T13:15:14.341Z,8.68
2023-01-30T13:17:53.119Z,9.80
2023-01-30T13:21:06.783Z,10.32
2023-01-30T13:23:43.515Z,9.60
2023-01-30T13:26:32.205Z,11.38
2023-01-30T13:29:12.042Z,12.30
2023-01-30T13:31:50.882Z,12.07
2023-01-30T13:37:13.170Z,11.13
2023-01-30T13:39:47.949Z,13.40
2023-01-30T13:42:50.694Z,14.20
2023-01-30T13:45:28.501Z,16.02
2023-01-30T13:48:14.632Z,16.08
2023-01-30T13:51:10.004Z,16.85
2023-01-30T13:54:03.391Z,14.13
2023-01-30T13:57:07.889Z,16.45
2023-01-30T14:00:10.712Z,14.43
2023-01-30T14:03:03.907Z,17.92
2023-01-30T14:05:54.226Z,17.65
2023-01-30T14:08:28.636Z,18.48
2023-01-30T14:10:57.531Z,18.10
2023-01-30T14:13:27.616Z,17.08
2023-01-30T14:16:04.745Z,17.67
2023-01-30T14:18:38.838Z,17.30
2023-01-30T14:21:25.030Z,17.17
2023-01-30T14:24:07.180Z,18.63
2023-01-30T14:26:50.616Z,17.50
2023-01-30T14:29:42.415Z,17.70
2023-01-30T14:32:13.785Z,18.73
2023-01-30T14:35:03.047Z,16.40
2023-01-30T14:37:39.382Z,17.55
2023-01-30T14:40:22.201Z,19.20
2023-01-30T14:43:16.855Z,18.10
2023-01-30T14:45:56.815Z,15.93
2023-01-30T14:49:01.074Z,18.63
2023-01-30T14:51:39.150Z,18.75
2023-01-30T14:54:13.309Z,17.10
2023-01-30T14:57:01.179Z,20.85
2023-01-30T15:00:15.064Z,20.63
2023-01-30T15:02:59.172Z,20.45
2023-01-30T15:05:39.103Z,20.42
2023-01-30T15:08:20.372Z,21.58
2023-01-30T15:11:16.943Z,20.55
2023-01-30T15:14:01.967Z,19.55
2023-01-30T15:17:20.252Z,22.13
2023-01-30T15:20:18.668Z,24.57
2023-01-30T15:23:08.684Z,26.42
2023-01-30T15:25:57.768Z,26.48
2023-01-30T15:28:51.695Z,26.58
2023-01-30T15:31:23.287Z,29.00
2023-01-30T15:33:54.475Z,30.13
2023-01-30T15:36:36.537Z,27.40
2023-01-30T15:39:21.723Z,27.88
2023-01-30T15:41:57.256Z,29.95
2023-01-30T15:44:53.503Z,30.75
2023-01-30T15:47:40.007Z,28.70
2023-01-30T15:50:10.344Z,28.38
2023-01-30T15:52:49.372Z,31.30
2023-01-30T15:55:31.350Z,36.83
2023-01-30T15:58:10.986Z,38.80
2023-01-30T16:00:49.114Z,36.78
2023-01-30T16:03:36.801Z,38.15
2023-01-30T16:06:05.201Z,39.00
2023-01-30T16:08:37.153Z,37.38
2023-01-30T16:11:04.885Z,39.20
2023-01-30T16:13:33.437Z,41.22
2023-01-30T16:16:09.065Z,39.95
2023-01-30T16:18:57.749Z,37.10
2023-01-30T16:21:40.229Z,35.20
2023-01-30T16:24:24.915Z,32.35
2023-01-30T16:27:01.266Z,33.60
2023-01-30T16:29:33.683Z,30.77
2023-01-30T16:32:01.716Z,33.55
2023-01-30T16:34:36.363Z,33.78
2023-01-30T16:37:20.986Z,40.83
2023-01-30T16:40:23.797Z,36.90
2023-01-30T16:43:04.101Z,33.10
2023-01-30T16:45:34.640Z,35.53
2023-01-30T16:48:16.891Z,34.72
2023-01-30T16:50:47.441Z,34.35
2023-01-30T16:53:24.271Z,35.17
2023-01-30T16:56:09.938Z,39.47
2023-01-30T16:58:38.882Z,39.33
2023-01-30T17:01:08.967Z,38.15
2023-01-30T17:03:48.724Z,40.53
2023-01-30T17:06:42.998Z,39.60
2023-01-30T17:09:44.680Z,41.95
2023-01-30T17:12:31.244Z,41.05
2023-01-30T17:15:13.681Z,46.45
2023-01-30T17:17:41.988Z,43.92
2023-01-30T17:20:13.242Z,44.10
2023-01-30T17:22:44.997Z,46.35
2023-01-30T17:25:31.185Z,44.33
2023-01-30T17:27:59.633Z,57.70
2023-01-30T17:30:27.131Z,52.85
2023-01-30T17:33:03.785Z,49.75
2023-01-30T17:38:57.589Z,61.78
2023-01-30T17:41:33.586Z,56.83
2023-01-30T17:44:01.424Z,49.88
2023-01-30T17:46:45.650Z,51.38
2023-01-30T17:49:20.033Z,54.72
2023-01-30T17:51:48.324Z,55.67
2023-01-30T17:54:16.984Z,56.97
2023-01-30T17:57:04.793Z,56.88
2023-01-30T17:59:33.501Z,57.00
2023-01-30T18:02:19.893Z,54.78
2023-01-30T18:04:51.710Z,54.03
2023-01-30T18:11:52.325Z,53.55
2023-01-30T18:14:26.457Z,56.50
2023-01-30T18:17:00.212Z,53.60
2023-01-30T18:19:31.768Z,56.10
2023-01-30T18:22:00.224Z,58.30
2023-01-30T18:24:28.201Z,54.95
2023-01-30T18:26:56.046Z,55.72
2023-01-30T18:30:25.843Z,55.60
2023-01-30T18:42:45.682Z,52.72
2023-01-30T18:45:42.471Z,50.47
2023-01-30T18:48:11.078Z,55.72
2023-01-30T18:50:39.647Z,56.95
2023-01-30T18:53:07.986Z,58.28
2023-01-30T18:55:36.335Z,50.88
2023-01-30T18:58:03.820Z,59.53
2023-01-30T19:00:31.797Z,58.97
2023-01-30T19:02:59.578Z,60.45
2023-01-30T19:05:27.607Z,62.13
2023-01-30T19:07:55.740Z,65.93
2023-01-30T19:10:23.552Z,65.22
2023-01-30T19:13:09.863Z,63.78
2023-01-30T19:15:38.898Z,62.65
2023-01-30T19:18:06.447Z,60.83
2023-01-30T19:20:34.555Z,65.25
2023-01-30T19:23:02.132Z,62.50
2023-01-30T19:25:30.072Z,63.83
2023-01-30T19:27:57.790Z,60.67
2023-01-30T19:30:25.639Z,61.70
2023-01-30T19:32:54.340Z,62.10
2023-01-30T19:35:22.445Z,60.85
2023-01-30T19:37:50.273Z,67.78
2023-01-30T19:40:18.657Z,68.63
2023-01-30T19:42:47.300Z,70.97
2023-01-30T19:45:15.200Z,64.93
2023-01-30T19:47:42.823Z,64.18
2023-01-30T19:50:11.561Z,68.45
2023-01-30T19:52:40.890Z,69.70
2023-01-30T19:55:09.284Z,64.22
2023-01-30T19:57:36.814Z,64.18
2023-01-30T20:00:06.347Z,67.78
2023-01-30T20:02:34.078Z,77.05
2023-01-30T20:05:02.718Z,76.18
2023-01-30T20:07:34.679Z,74.95
2023-01-30T20:10:03.268Z,71.93
2023-01-30T20:12:32.149Z,70.00
2023-01-30T20:14:59.929Z,70.43
2023-01-30T20:17:27.645Z,70.15
2023-01-30T20:19:55.633Z,66.60
2023-01-30T20:22:23.966Z,74.20
2023-01-30T20:24:52.709Z,72.93
2023-01-30T20:27:21.224Z,81.35
2023-01-30T20:29:49.715Z,85.88
2023-01-30T20:32:17.290Z,85.32
2023-01-30T20:34:45.558Z,96.30
2023-01-30T20:37:13.171Z,92.68
2023-01-30T20:39:41.084Z,62.88
2023-01-30T20:42:08.872Z,52.35
2023-01-30T20:44:37.379Z,50.97
2023-01-30T20:47:05.961Z,60.38
2023-01-30T20:49:34.725Z,68.03
2023-01-30T20:52:03.050Z,63.08
2023-01-30T20:54:31.949Z,60.03
2023-01-30T20:57:00.521Z,54.13
2023-01-30T20:59:28.720Z,55.40
2023-01-30T21:01:56.583Z,60.17
2023-01-30T21:04:24.782Z,58.10
2023-01-30T21:06:52.905Z,56.83
2023-01-30T21:09:23.382Z,57.92
2023-01-30T21:11:53.367Z,61.95
2023-01-30T21:14:23.331Z,58.35
2023-01-30T21:16:52.242Z,61.50
2023-01-30T21:19:20.364Z,63.53
2023-01-30T21:21:55.201Z,61.67
2023-01-30T21:24:28.477Z,58.47
2023-01-30T21:26:57.080Z,60.20
2023-01-30T21:29:28.284Z,61.20
2023-01-30T21:31:58.015Z,59.45
2023-01-30T21:34:26.369Z,61.72
2023-01-30T21:37:12.689Z,56.08
2023-01-30T21:39:59.348Z,50.83
2023-01-30T21:42:45.498Z,45.35
2023-01-30T21:45:13.615Z,43.17
2023-01-30T21:47:41.192Z,36.60
2023-01-30T21:50:10.337Z,34.97
2023-01-30T21:52:37.991Z,32.40
2023-01-30T21:55:06.337Z,28.23
2023-01-30T21:57:33.987Z,29.85
2023-01-30T22:00:01.885Z,32.58
2023-01-30T22:02:29.513Z,28.60
2023-01-30T22:04:57.361Z,29.30
2023-01-30T22:07:24.925Z,30.48
2023-01-30T22:09:52.841Z,31.48
2023-01-30T22:12:20.456Z,29.10
2023-01-30T22:15:10.681Z,31.92
2023-01-30T22:18:06.777Z,28.83
2023-01-30T22:20:35.345Z,27.65
2023-01-30T22:23:04.048Z,24.52
2023-01-30T22:25:32.598Z,25.63
2023-01-30T22:28:01.169Z,24.67
2023-01-30T22:30:29.615Z,26.90
2023-01-30T22:32:57.376Z,26.80
2023-01-30T22:35:25.740Z,26.38
2023-01-30T22:37:53.433Z,25.40
2023-01-30T22:40:21.423Z,26.00
2023-01-30T22:43:38.659Z,28.80
2023-01-30T22:46:08.901Z,29.30
2023-01-30T22:49:28.725Z,28.92
2023-01-30T22:54:26.051Z,28.70
2023-01-30T22:57:03.076Z,27.23
2023-01-30T22:59:33.953Z,27.05
2023-01-30T23:02:04.226Z,24.42
2023-01-30T23:04:32.057Z,22.98
2023-01-30T23:07:00.092Z,28.38
2023-01-30T23:09:39.537Z,29.75
2023-01-30T23:12:45.738Z,27.33
2023-01-30T23:18:41.599Z,28.83
2023-01-30T23:21:51.381Z,27.95
2023-01-30T23:24:41.364Z,23.58
2023-01-30T23:27:46.657Z,28.13
2023-01-30T23:30:40.190Z,30.48
2023-01-30T23:33:07.986Z,30.52
2023-01-30T23:35:45.268Z,29.70
2023-01-30T23:38:15.792Z,30.15
2023-01-30T23:44:11.744Z,28.63
2023-01-30T23:47:00.089Z,28.55
2023-01-30T23:49:46.829Z,28.60
2023-01-30T23:52:55.062Z,31.10
2023-01-30T23:59:09.207Z,31.20
